sensor_id;sensor_type;location;lat;lon;timestamp;temperature;humidity
23291;DHT22;11814;44.686;10.842;2023-07-09T00:01:56;25.30;84.10
23291;DHT22;11814;44.686;10.842;2023-07-09T00:04:22;25.20;84.60
23291;DHT22;11814;44.686;10.842;2023-07-09T00:06:47;25.20;85.40
23291;DHT22;11814;44.686;10.842;2023-07-09T00:09:18;25.20;85.10
23291;DHT22;11814;44.686;10.842;2023-07-09T00:11:45;25.20;85.40
23291;DHT22;11814;44.686;10.842;2023-07-09T00:14:12;25.20;85.60
23291;DHT22;11814;44.686;10.842;2023-07-09T00:16:40;25.10;85.70
23291;DHT22;11814;44.686;10.842;2023-07-09T00:19:11;25.00;85.90
23291;DHT22;11814;44.686;10.842;2023-07-09T00:21:39;25.00;86.30
23291;DHT22;11814;44.686;10.842;2023-07-09T00:24:06;24.90;86.50
23291;DHT22;11814;44.686;10.842;2023-07-09T00:26:32;24.80;86.90
23291;DHT22;11814;44.686;10.842;2023-07-09T00:28:59;24.70;87.20
23291;DHT22;11814;44.686;10.842;2023-07-09T00:31:26;24.70;87.60
23291;DHT22;11814;44.686;10.842;2023-07-09T00:33:52;24.70;88.00
23291;DHT22;11814;44.686;10.842;2023-07-09T00:36:29;24.70;88.90
23291;DHT22;11814;44.686;10.842;2023-07-09T00:38:57;24.70;88.10
23291;DHT22;11814;44.686;10.842;2023-07-09T00:41:25;24.70;88.10
23291;DHT22;11814;44.686;10.842;2023-07-09T00:43:51;24.80;88.20
23291;DHT22;11814;44.686;10.842;2023-07-09T00:48:51;24.80;88.70
23291;DHT22;11814;44.686;10.842;2023-07-09T00:51:20;24.70;88.90
23291;DHT22;11814;44.686;10.842;2023-07-09T00:53:50;24.70;89.10
23291;DHT22;11814;44.686;10.842;2023-07-09T00:56:28;24.80;89.30
23291;DHT22;11814;44.686;10.842;2023-07-09T00:58:55;24.80;89.60
23291;DHT22;11814;44.686;10.842;2023-07-09T01:01:25;24.70;89.70
23291;DHT22;11814;44.686;10.842;2023-07-09T01:03:54;24.70;90.00
23291;DHT22;11814;44.686;10.842;2023-07-09T01:06:32;24.70;90.00
23291;DHT22;11814;44.686;10.842;2023-07-09T01:09:01;24.70;90.30
23291;DHT22;11814;44.686;10.842;2023-07-09T01:11:27;24.70;90.20
23291;DHT22;11814;44.686;10.842;2023-07-09T01:13:55;24.60;90.40
23291;DHT22;11814;44.686;10.842;2023-07-09T01:16:24;24.50;90.60
23291;DHT22;11814;44.686;10.842;2023-07-09T01:18:51;24.50;90.80
23291;DHT22;11814;44.686;10.842;2023-07-09T01:21:17;24.40;91.20
23291;DHT22;11814;44.686;10.842;2023-07-09T01:23:44;24.30;91.40
23291;DHT22;11814;44.686;10.842;2023-07-09T01:26:11;24.20;91.80
23291;DHT22;11814;44.686;10.842;2023-07-09T01:28:38;24.20;92.00
23291;DHT22;11814;44.686;10.842;2023-07-09T01:31:07;24.20;92.30
23291;DHT22;11814;44.686;10.842;2023-07-09T01:33:33;24.20;92.50
23291;DHT22;11814;44.686;10.842;2023-07-09T01:35:59;24.20;93.10
23291;DHT22;11814;44.686;10.842;2023-07-09T01:38:28;24.20;93.00
23291;DHT22;11814;44.686;10.842;2023-07-09T01:40:56;24.30;93.30
23291;DHT22;11814;44.686;10.842;2023-07-09T01:43:23;24.20;93.60
23291;DHT22;11814;44.686;10.842;2023-07-09T01:45:50;24.20;93.90
23291;DHT22;11814;44.686;10.842;2023-07-09T01:48:18;24.20;94.20
23291;DHT22;11814;44.686;10.842;2023-07-09T01:50:46;24.20;94.40
23291;DHT22;11814;44.686;10.842;2023-07-09T01:53:16;24.20;94.70
23291;DHT22;11814;44.686;10.842;2023-07-09T01:55:43;24.20;94.70
23291;DHT22;11814;44.686;10.842;2023-07-09T01:58:09;24.20;95.20
23291;DHT22;11814;44.686;10.842;2023-07-09T02:00:37;24.20;95.60
23291;DHT22;11814;44.686;10.842;2023-07-09T02:03:03;24.20;96.00
23291;DHT22;11814;44.686;10.842;2023-07-09T02:05:31;24.20;95.90
23291;DHT22;11814;44.686;10.842;2023-07-09T02:07:58;24.20;95.70
23291;DHT22;11814;44.686;10.842;2023-07-09T02:10:24;24.30;95.70
23291;DHT22;11814;44.686;10.842;2023-07-09T02:12:49;24.20;95.80
23291;DHT22;11814;44.686;10.842;2023-07-09T02:15:15;24.30;95.80
23291;DHT22;11814;44.686;10.842;2023-07-09T02:17:41;24.20;95.90
23291;DHT22;11814;44.686;10.842;2023-07-09T02:20:08;24.20;96.00
23291;DHT22;11814;44.686;10.842;2023-07-09T02:22:35;24.20;96.10
23291;DHT22;11814;44.686;10.842;2023-07-09T02:25:02;24.20;96.20
23291;DHT22;11814;44.686;10.842;2023-07-09T02:27:27;24.20;96.20
23291;DHT22;11814;44.686;10.842;2023-07-09T02:29:53;24.10;96.30
23291;DHT22;11814;44.686;10.842;2023-07-09T02:32:25;24.10;96.60
23291;DHT22;11814;44.686;10.842;2023-07-09T02:34:54;24.00;96.80
23291;DHT22;11814;44.686;10.842;2023-07-09T02:37:22;23.90;97.20
23291;DHT22;11814;44.686;10.842;2023-07-09T02:39:48;23.90;97.70
23291;DHT22;11814;44.686;10.842;2023-07-09T02:42:16;23.70;97.90
23291;DHT22;11814;44.686;10.842;2023-07-09T02:44:43;23.70;98.30
23291;DHT22;11814;44.686;10.842;2023-07-09T02:47:09;23.60;98.70
23291;DHT22;11814;44.686;10.842;2023-07-09T02:49:36;23.60;99.00
23291;DHT22;11814;44.686;10.842;2023-07-09T02:52:01;23.70;99.20
23291;DHT22;11814;44.686;10.842;2023-07-09T02:54:27;23.70;99.10
23291;DHT22;11814;44.686;10.842;2023-07-09T02:56:53;23.70;99.20
23291;DHT22;11814;44.686;10.842;2023-07-09T02:59:19;23.70;99.30
23291;DHT22;11814;44.686;10.842;2023-07-09T03:01:45;23.60;99.60
23291;DHT22;11814;44.686;10.842;2023-07-09T03:04:13;23.60;99.90
23291;DHT22;11814;44.686;10.842;2023-07-09T03:06:39;23.50;99.90
23291;DHT22;11814;44.686;10.842;2023-07-09T03:09:05;23.60;99.90
23291;DHT22;11814;44.686;10.842;2023-07-09T03:11:32;23.60;99.90
23291;DHT22;11814;44.686;10.842;2023-07-09T03:13:59;23.60;99.90
23291;DHT22;11814;44.686;10.842;2023-07-09T03:16:27;23.60;99.90
23291;DHT22;11814;44.686;10.842;2023-07-09T03:18:53;23.60;99.90
23291;DHT22;11814;44.686;10.842;2023-07-09T03:21:20;23.50;99.90
23291;DHT22;11814;44.686;10.842;2023-07-09T03:23:46;23.50;99.90
23291;DHT22;11814;44.686;10.842;2023-07-09T03:26:12;23.40;99.90
23291;DHT22;11814;44.686;10.842;2023-07-09T03:28:38;23.40;99.90
23291;DHT22;11814;44.686;10.842;2023-07-09T03:31:03;23.40;99.90
23291;DHT22;11814;44.686;10.842;2023-07-09T03:33:29;23.30;99.90
23291;DHT22;11814;44.686;10.842;2023-07-09T03:35:55;23.30;99.90
23291;DHT22;11814;44.686;10.842;2023-07-09T03:38:21;23.20;99.90
23291;DHT22;11814;44.686;10.842;2023-07-09T03:40:50;23.20;99.90
23291;DHT22;11814;44.686;10.842;2023-07-09T03:43:17;23.20;99.90
23291;DHT22;11814;44.686;10.842;2023-07-09T03:45:44;23.10;99.90
23291;DHT22;11814;44.686;10.842;2023-07-09T03:48:10;23.10;99.90
23291;DHT22;11814;44.686;10.842;2023-07-09T03:50:36;23.10;99.90
23291;DHT22;11814;44.686;10.842;2023-07-09T03:53:01;23.20;99.90
23291;DHT22;11814;44.686;10.842;2023-07-09T03:55:27;23.20;99.90
23291;DHT22;11814;44.686;10.842;2023-07-09T03:57:56;23.20;99.90
23291;DHT22;11814;44.686;10.842;2023-07-09T04:00:22;23.20;99.90
23291;DHT22;11814;44.686;10.842;2023-07-09T04:02:48;23.20;99.90
23291;DHT22;11814;44.686;10.842;2023-07-09T04:05:14;23.20;99.90
23291;DHT22;11814;44.686;10.842;2023-07-09T04:07:40;23.30;99.90
23291;DHT22;11814;44.686;10.842;2023-07-09T04:10:06;23.30;99.90
23291;DHT22;11814;44.686;10.842;2023-07-09T04:12:32;23.20;99.90
23291;DHT22;11814;44.686;10.842;2023-07-09T04:14:58;23.20;99.90
23291;DHT22;11814;44.686;10.842;2023-07-09T04:17:23;23.20;99.90
23291;DHT22;11814;44.686;10.842;2023-07-09T04:19:50;23.20;99.90
23291;DHT22;11814;44.686;10.842;2023-07-09T04:22:16;23.20;99.90
23291;DHT22;11814;44.686;10.842;2023-07-09T04:24:43;23.10;99.90
23291;DHT22;11814;44.686;10.842;2023-07-09T04:27:09;23.10;99.90
23291;DHT22;11814;44.686;10.842;2023-07-09T04:29:34;23.00;99.90
23291;DHT22;11814;44.686;10.842;2023-07-09T04:32:01;23.00;99.90
23291;DHT22;11814;44.686;10.842;2023-07-09T04:34:27;23.10;99.90
23291;DHT22;11814;44.686;10.842;2023-07-09T04:36:53;23.10;99.90
23291;DHT22;11814;44.686;10.842;2023-07-09T04:39:18;23.20;99.90
23291;DHT22;11814;44.686;10.842;2023-07-09T04:41:44;23.20;99.90
23291;DHT22;11814;44.686;10.842;2023-07-09T04:44:10;23.20;99.90
23291;DHT22;11814;44.686;10.842;2023-07-09T04:46:35;23.20;99.90
23291;DHT22;11814;44.686;10.842;2023-07-09T04:49:01;23.30;99.90
23291;DHT22;11814;44.686;10.842;2023-07-09T04:51:27;23.40;99.90
23291;DHT22;11814;44.686;10.842;2023-07-09T04:53:53;23.50;99.90
23291;DHT22;11814;44.686;10.842;2023-07-09T04:56:18;23.60;99.90
23291;DHT22;11814;44.686;10.842;2023-07-09T04:58:44;23.70;99.90
23291;DHT22;11814;44.686;10.842;2023-07-09T05:01:10;23.70;99.90
23291;DHT22;11814;44.686;10.842;2023-07-09T05:03:36;23.80;99.90
23291;DHT22;11814;44.686;10.842;2023-07-09T05:06:02;23.80;99.90
23291;DHT22;11814;44.686;10.842;2023-07-09T05:08:28;23.90;99.90
23291;DHT22;11814;44.686;10.842;2023-07-09T05:10:57;24.00;99.90
23291;DHT22;11814;44.686;10.842;2023-07-09T05:13:24;24.00;99.90
23291;DHT22;11814;44.686;10.842;2023-07-09T05:15:50;24.00;99.90
23291;DHT22;11814;44.686;10.842;2023-07-09T05:18:17;24.10;99.90
23291;DHT22;11814;44.686;10.842;2023-07-09T05:20:43;24.10;99.90
23291;DHT22;11814;44.686;10.842;2023-07-09T05:23:09;24.20;99.90
23291;DHT22;11814;44.686;10.842;2023-07-09T05:25:35;24.20;99.90
23291;DHT22;11814;44.686;10.842;2023-07-09T05:28:01;24.40;99.90
23291;DHT22;11814;44.686;10.842;2023-07-09T05:30:27;24.50;99.90
23291;DHT22;11814;44.686;10.842;2023-07-09T05:32:52;24.60;99.90
23291;DHT22;11814;44.686;10.842;2023-07-09T05:35:23;24.80;99.90
23291;DHT22;11814;44.686;10.842;2023-07-09T05:37:51;25.00;99.90
23291;DHT22;11814;44.686;10.842;2023-07-09T05:40:16;25.20;99.90
23291;DHT22;11814;44.686;10.842;2023-07-09T05:42:42;25.40;99.90
23291;DHT22;11814;44.686;10.842;2023-07-09T05:45:08;25.50;99.90
23291;DHT22;11814;44.686;10.842;2023-07-09T05:47:34;25.70;99.90
23291;DHT22;11814;44.686;10.842;2023-07-09T05:49:59;25.90;99.90
23291;DHT22;11814;44.686;10.842;2023-07-09T05:52:25;26.00;99.90
23291;DHT22;11814;44.686;10.842;2023-07-09T05:54:51;26.10;99.40
23291;DHT22;11814;44.686;10.842;2023-07-09T05:57:18;26.30;98.60
23291;DHT22;11814;44.686;10.842;2023-07-09T05:59:44;26.50;97.80
23291;DHT22;11814;44.686;10.842;2023-07-09T06:02:11;26.70;97.10
23291;DHT22;11814;44.686;10.842;2023-07-09T06:04:37;26.80;96.20
23291;DHT22;11814;44.686;10.842;2023-07-09T06:07:03;27.10;95.60
23291;DHT22;11814;44.686;10.842;2023-07-09T06:09:30;27.20;94.70
23291;DHT22;11814;44.686;10.842;2023-07-09T06:11:56;27.40;94.20
23291;DHT22;11814;44.686;10.842;2023-07-09T06:14:21;27.80;93.20
23291;DHT22;11814;44.686;10.842;2023-07-09T06:16:47;28.30;91.80
23291;DHT22;11814;44.686;10.842;2023-07-09T06:19:13;28.80;90.30
23291;DHT22;11814;44.686;10.842;2023-07-09T06:21:39;29.10;87.80
23291;DHT22;11814;44.686;10.842;2023-07-09T06:24:06;29.30;85.80
23291;DHT22;11814;44.686;10.842;2023-07-09T06:26:32;29.50;84.70
23291;DHT22;11814;44.686;10.842;2023-07-09T06:28:58;29.90;83.40
23291;DHT22;11814;44.686;10.842;2023-07-09T06:31:24;30.40;81.30
23291;DHT22;11814;44.686;10.842;2023-07-09T06:33:50;30.90;78.40
23291;DHT22;11814;44.686;10.842;2023-07-09T06:36:17;31.40;76.10
23291;DHT22;11814;44.686;10.842;2023-07-09T06:38:43;31.80;73.60
23291;DHT22;11814;44.686;10.842;2023-07-09T06:41:10;32.30;71.70
23291;DHT22;11814;44.686;10.842;2023-07-09T06:43:35;32.70;70.00
23291;DHT22;11814;44.686;10.842;2023-07-09T06:46:04;33.10;68.40
23291;DHT22;11814;44.686;10.842;2023-07-09T06:48:30;33.40;66.70
23291;DHT22;11814;44.686;10.842;2023-07-09T06:50:57;33.60;65.80
23291;DHT22;11814;44.686;10.842;2023-07-09T06:53:23;33.60;64.40
23291;DHT22;11814;44.686;10.842;2023-07-09T06:55:49;33.30;64.00
23291;DHT22;11814;44.686;10.842;2023-07-09T06:58:16;33.00;64.80
23291;DHT22;11814;44.686;10.842;2023-07-09T07:00:42;33.00;65.10
23291;DHT22;11814;44.686;10.842;2023-07-09T07:03:09;33.00;64.60
23291;DHT22;11814;44.686;10.842;2023-07-09T07:05:35;32.80;65.10
23291;DHT22;11814;44.686;10.842;2023-07-09T07:08:01;32.40;66.20
23291;DHT22;11814;44.686;10.842;2023-07-09T07:10:28;32.20;67.80
23291;DHT22;11814;44.686;10.842;2023-07-09T07:12:54;32.10;67.20
23291;DHT22;11814;44.686;10.842;2023-07-09T07:15:20;32.00;67.60
23291;DHT22;11814;44.686;10.842;2023-07-09T07:17:46;31.70;68.00
23291;DHT22;11814;44.686;10.842;2023-07-09T07:20:13;31.60;68.40
23291;DHT22;11814;44.686;10.842;2023-07-09T07:22:39;31.60;69.00
23291;DHT22;11814;44.686;10.842;2023-07-09T07:25:06;31.90;68.50
23291;DHT22;11814;44.686;10.842;2023-07-09T07:27:32;32.30;67.20
23291;DHT22;11814;44.686;10.842;2023-07-09T07:29:58;32.50;65.90
23291;DHT22;11814;44.686;10.842;2023-07-09T07:32:24;32.50;65.10
23291;DHT22;11814;44.686;10.842;2023-07-09T07:34:49;32.60;65.30
23291;DHT22;11814;44.686;10.842;2023-07-09T07:37:17;32.50;63.90
23291;DHT22;11814;44.686;10.842;2023-07-09T07:39:44;32.30;64.30
23291;DHT22;11814;44.686;10.842;2023-07-09T07:42:10;32.10;64.70
23291;DHT22;11814;44.686;10.842;2023-07-09T07:44:36;32.00;65.00
23291;DHT22;11814;44.686;10.842;2023-07-09T07:47:01;31.90;65.40
23291;DHT22;11814;44.686;10.842;2023-07-09T07:49:27;31.70;65.40
23291;DHT22;11814;44.686;10.842;2023-07-09T07:51:52;31.60;65.50
23291;DHT22;11814;44.686;10.842;2023-07-09T07:54:18;31.40;66.40
23291;DHT22;11814;44.686;10.842;2023-07-09T07:56:44;31.20;67.10
23291;DHT22;11814;44.686;10.842;2023-07-09T07:59:09;31.10;67.70
23291;DHT22;11814;44.686;10.842;2023-07-09T08:01:35;30.90;68.10
23291;DHT22;11814;44.686;10.842;2023-07-09T08:04:02;30.90;68.40
23291;DHT22;11814;44.686;10.842;2023-07-09T08:06:28;30.80;68.80
23291;DHT22;11814;44.686;10.842;2023-07-09T08:08:53;30.80;68.70
23291;DHT22;11814;44.686;10.842;2023-07-09T08:11:19;30.70;67.60
23291;DHT22;11814;44.686;10.842;2023-07-09T08:13:45;30.60;68.30
23291;DHT22;11814;44.686;10.842;2023-07-09T08:16:10;30.60;68.60
23291;DHT22;11814;44.686;10.842;2023-07-09T08:18:39;30.70;68.70
23291;DHT22;11814;44.686;10.842;2023-07-09T08:21:05;30.60;68.60
23291;DHT22;11814;44.686;10.842;2023-07-09T08:23:31;30.70;68.50
23291;DHT22;11814;44.686;10.842;2023-07-09T08:25:58;30.60;68.10
23291;DHT22;11814;44.686;10.842;2023-07-09T08:28:24;30.60;68.20
23291;DHT22;11814;44.686;10.842;2023-07-09T08:30:53;30.60;68.40
23291;DHT22;11814;44.686;10.842;2023-07-09T08:33:19;30.60;68.90
23291;DHT22;11814;44.686;10.842;2023-07-09T08:35:45;30.60;69.80
23291;DHT22;11814;44.686;10.842;2023-07-09T08:38:11;30.60;69.60
23291;DHT22;11814;44.686;10.842;2023-07-09T08:40:40;30.80;70.00
23291;DHT22;11814;44.686;10.842;2023-07-09T08:46:14;30.80;68.30
23291;DHT22;11814;44.686;10.842;2023-07-09T08:48:45;30.90;67.80
23291;DHT22;11814;44.686;10.842;2023-07-09T08:54:09;30.90;68.20
23291;DHT22;11814;44.686;10.842;2023-07-09T08:56:38;31.00;68.90
23291;DHT22;11814;44.686;10.842;2023-07-09T08:59:04;31.10;69.20
23291;DHT22;11814;44.686;10.842;2023-07-09T09:01:53;31.10;68.70
23291;DHT22;11814;44.686;10.842;2023-07-09T09:04:29;31.20;68.50
23291;DHT22;11814;44.686;10.842;2023-07-09T09:10:03;31.20;68.50
23291;DHT22;11814;44.686;10.842;2023-07-09T09:12:47;31.20;69.00
23291;DHT22;11814;44.686;10.842;2023-07-09T09:15:19;31.30;69.20
23291;DHT22;11814;44.686;10.842;2023-07-09T09:17:50;31.40;69.20
23291;DHT22;11814;44.686;10.842;2023-07-09T09:20:19;31.60;69.30
23291;DHT22;11814;44.686;10.842;2023-07-09T09:22:54;31.60;68.80
23291;DHT22;11814;44.686;10.842;2023-07-09T09:25:35;31.70;68.80
23291;DHT22;11814;44.686;10.842;2023-07-09T09:28:03;31.80;68.60
23291;DHT22;11814;44.686;10.842;2023-07-09T09:30:29;31.80;68.20
23291;DHT22;11814;44.686;10.842;2023-07-09T09:33:01;31.80;68.10
23291;DHT22;11814;44.686;10.842;2023-07-09T09:36:00;31.90;68.00
23291;DHT22;11814;44.686;10.842;2023-07-09T09:38:22;32.00;67.80
23291;DHT22;11814;44.686;10.842;2023-07-09T09:40:48;32.10;67.70
23291;DHT22;11814;44.686;10.842;2023-07-09T09:43:19;32.10;67.50
23291;DHT22;11814;44.686;10.842;2023-07-09T09:45:48;32.10;66.60
23291;DHT22;11814;44.686;10.842;2023-07-09T09:48:19;32.00;66.70
23291;DHT22;11814;44.686;10.842;2023-07-09T09:50:46;32.10;67.30
23291;DHT22;11814;44.686;10.842;2023-07-09T09:53:22;32.20;67.80
23291;DHT22;11814;44.686;10.842;2023-07-09T09:55:50;32.30;67.50
23291;DHT22;11814;44.686;10.842;2023-07-09T09:58:18;32.40;67.00
23291;DHT22;11814;44.686;10.842;2023-07-09T10:00:51;32.40;66.70
23291;DHT22;11814;44.686;10.842;2023-07-09T10:03:18;32.50;66.70
23291;DHT22;11814;44.686;10.842;2023-07-09T10:05:55;32.50;66.10
23291;DHT22;11814;44.686;10.842;2023-07-09T10:08:44;32.60;65.30
23291;DHT22;11814;44.686;10.842;2023-07-09T10:11:27;32.50;64.10
23291;DHT22;11814;44.686;10.842;2023-07-09T10:14:00;32.60;63.90
23291;DHT22;11814;44.686;10.842;2023-07-09T10:16:40;32.70;63.50
23291;DHT22;11814;44.686;10.842;2023-07-09T10:19:25;32.70;64.10
23291;DHT22;11814;44.686;10.842;2023-07-09T10:22:05;32.70;63.40
23291;DHT22;11814;44.686;10.842;2023-07-09T10:24:41;32.70;63.20
23291;DHT22;11814;44.686;10.842;2023-07-09T10:27:18;32.80;62.70
23291;DHT22;11814;44.686;10.842;2023-07-09T10:32:29;32.80;61.60
23291;DHT22;11814;44.686;10.842;2023-07-09T10:35:27;32.80;61.00
23291;DHT22;11814;44.686;10.842;2023-07-09T10:38:08;32.90;60.70
23291;DHT22;11814;44.686;10.842;2023-07-09T10:40:45;32.90;60.50
23291;DHT22;11814;44.686;10.842;2023-07-09T10:43:36;33.00;60.20
23291;DHT22;11814;44.686;10.842;2023-07-09T10:46:12;33.00;60.10
23291;DHT22;11814;44.686;10.842;2023-07-09T10:48:43;33.10;60.20
23291;DHT22;11814;44.686;10.842;2023-07-09T10:53:50;33.20;59.00
23291;DHT22;11814;44.686;10.842;2023-07-09T10:56:20;33.20;58.30
23291;DHT22;11814;44.686;10.842;2023-07-09T10:58:53;33.20;58.10
23291;DHT22;11814;44.686;10.842;2023-07-09T11:01:29;33.20;58.40
23291;DHT22;11814;44.686;10.842;2023-07-09T11:04:00;33.40;58.80
23291;DHT22;11814;44.686;10.842;2023-07-09T11:06:45;33.50;59.60
23291;DHT22;11814;44.686;10.842;2023-07-09T11:09:35;33.50;60.60
23291;DHT22;11814;44.686;10.842;2023-07-09T11:12:16;33.60;60.90
23291;DHT22;11814;44.686;10.842;2023-07-09T11:15:09;33.60;60.40
23291;DHT22;11814;44.686;10.842;2023-07-09T11:17:40;33.60;60.60
23291;DHT22;11814;44.686;10.842;2023-07-09T11:20:18;33.60;60.80
23291;DHT22;11814;44.686;10.842;2023-07-09T11:22:52;33.60;60.80
23291;DHT22;11814;44.686;10.842;2023-07-09T11:25:29;33.50;61.10
23291;DHT22;11814;44.686;10.842;2023-07-09T11:28:03;33.60;61.40
23291;DHT22;11814;44.686;10.842;2023-07-09T11:30:29;33.50;60.90
23291;DHT22;11814;44.686;10.842;2023-07-09T11:33:03;33.50;60.90
23291;DHT22;11814;44.686;10.842;2023-07-09T11:35:45;33.60;61.10
23291;DHT22;11814;44.686;10.842;2023-07-09T11:38:20;33.70;61.10
23291;DHT22;11814;44.686;10.842;2023-07-09T11:40:54;33.70;60.80
23291;DHT22;11814;44.686;10.842;2023-07-09T11:43:34;33.70;61.00
23291;DHT22;11814;44.686;10.842;2023-07-09T11:46:11;33.80;60.60
23291;DHT22;11814;44.686;10.842;2023-07-09T11:48:39;33.90;60.30
23291;DHT22;11814;44.686;10.842;2023-07-09T11:51:18;33.80;60.00
23291;DHT22;11814;44.686;10.842;2023-07-09T11:53:55;33.80;59.60
23291;DHT22;11814;44.686;10.842;2023-07-09T11:56:23;33.80;59.80
23291;DHT22;11814;44.686;10.842;2023-07-09T11:58:57;33.80;59.90
23291;DHT22;11814;44.686;10.842;2023-07-09T12:01:45;33.80;60.20
23291;DHT22;11814;44.686;10.842;2023-07-09T12:04:16;34.00;60.20
23291;DHT22;11814;44.686;10.842;2023-07-09T12:06:43;34.00;59.60
23291;DHT22;11814;44.686;10.842;2023-07-09T12:09:18;34.10;59.10
23291;DHT22;11814;44.686;10.842;2023-07-09T12:11:46;34.10;58.70
23291;DHT22;11814;44.686;10.842;2023-07-09T12:14:15;34.10;58.70
23291;DHT22;11814;44.686;10.842;2023-07-09T12:16:43;34.30;58.40
23291;DHT22;11814;44.686;10.842;2023-07-09T12:19:13;34.30;58.20
23291;DHT22;11814;44.686;10.842;2023-07-09T12:21:43;34.30;58.50
23291;DHT22;11814;44.686;10.842;2023-07-09T12:24:25;34.30;58.40
23291;DHT22;11814;44.686;10.842;2023-07-09T12:27:02;34.30;57.90
23291;DHT22;11814;44.686;10.842;2023-07-09T12:29:33;34.40;58.20
23291;DHT22;11814;44.686;10.842;2023-07-09T12:32:03;34.40;57.70
23291;DHT22;11814;44.686;10.842;2023-07-09T12:34:31;34.40;57.60
23291;DHT22;11814;44.686;10.842;2023-07-09T12:36:57;34.30;57.40
23291;DHT22;11814;44.686;10.842;2023-07-09T12:39:26;34.30;57.50
23291;DHT22;11814;44.686;10.842;2023-07-09T12:41:55;34.30;57.20
23291;DHT22;11814;44.686;10.842;2023-07-09T12:44:23;34.40;56.90
23291;DHT22;11814;44.686;10.842;2023-07-09T12:46:50;34.50;56.30
23291;DHT22;11814;44.686;10.842;2023-07-09T12:49:28;34.50;56.00
23291;DHT22;11814;44.686;10.842;2023-07-09T12:52:00;34.50;56.40
23291;DHT22;11814;44.686;10.842;2023-07-09T12:54:28;34.50;56.10
23291;DHT22;11814;44.686;10.842;2023-07-09T12:56:55;34.50;55.70
23291;DHT22;11814;44.686;10.842;2023-07-09T12:59:24;34.50;55.60
23291;DHT22;11814;44.686;10.842;2023-07-09T13:02:02;34.60;55.50
23291;DHT22;11814;44.686;10.842;2023-07-09T13:04:36;34.60;55.60
23291;DHT22;11814;44.686;10.842;2023-07-09T13:07:02;34.70;55.60
23291;DHT22;11814;44.686;10.842;2023-07-09T13:09:28;34.70;55.30
23291;DHT22;11814;44.686;10.842;2023-07-09T13:11:54;34.80;55.20
23291;DHT22;11814;44.686;10.842;2023-07-09T13:14:22;34.80;55.20
23291;DHT22;11814;44.686;10.842;2023-07-09T13:16:49;34.90;54.90
23291;DHT22;11814;44.686;10.842;2023-07-09T13:19:16;34.90;55.00
23291;DHT22;11814;44.686;10.842;2023-07-09T13:21:41;34.90;55.10
23291;DHT22;11814;44.686;10.842;2023-07-09T13:24:24;34.90;55.10
23291;DHT22;11814;44.686;10.842;2023-07-09T13:26:50;34.90;55.10
23291;DHT22;11814;44.686;10.842;2023-07-09T13:29:18;34.90;55.30
23291;DHT22;11814;44.686;10.842;2023-07-09T13:31:44;34.80;55.40
23291;DHT22;11814;44.686;10.842;2023-07-09T13:34:23;34.90;55.90
23291;DHT22;11814;44.686;10.842;2023-07-09T13:36:49;35.00;55.50
23291;DHT22;11814;44.686;10.842;2023-07-09T13:39:16;35.10;55.30
23291;DHT22;11814;44.686;10.842;2023-07-09T13:41:46;35.10;55.30
23291;DHT22;11814;44.686;10.842;2023-07-09T13:44:18;35.20;55.40
23291;DHT22;11814;44.686;10.842;2023-07-09T13:46:45;35.20;55.00
23291;DHT22;11814;44.686;10.842;2023-07-09T13:49:18;35.20;54.70
23291;DHT22;11814;44.686;10.842;2023-07-09T13:51:46;35.30;54.40
23291;DHT22;11814;44.686;10.842;2023-07-09T13:54:21;35.20;54.40
23291;DHT22;11814;44.686;10.842;2023-07-09T13:56:48;35.30;54.50
23291;DHT22;11814;44.686;10.842;2023-07-09T13:59:17;35.40;54.30
23291;DHT22;11814;44.686;10.842;2023-07-09T14:01:43;35.40;53.90
23291;DHT22;11814;44.686;10.842;2023-07-09T14:04:11;35.40;53.90
23291;DHT22;11814;44.686;10.842;2023-07-09T14:06:38;35.50;53.80
23291;DHT22;11814;44.686;10.842;2023-07-09T14:09:03;35.40;53.70
23291;DHT22;11814;44.686;10.842;2023-07-09T14:11:29;35.40;53.80
23291;DHT22;11814;44.686;10.842;2023-07-09T14:13:55;35.50;53.60
23291;DHT22;11814;44.686;10.842;2023-07-09T14:16:21;35.40;53.30
23291;DHT22;11814;44.686;10.842;2023-07-09T14:18:47;35.50;53.20
23291;DHT22;11814;44.686;10.842;2023-07-09T14:21:15;35.60;53.50
23291;DHT22;11814;44.686;10.842;2023-07-09T14:23:41;35.60;53.70
23291;DHT22;11814;44.686;10.842;2023-07-09T14:26:09;35.60;53.60
23291;DHT22;11814;44.686;10.842;2023-07-09T14:28:35;35.60;53.40
23291;DHT22;11814;44.686;10.842;2023-07-09T14:31:04;35.60;53.30
23291;DHT22;11814;44.686;10.842;2023-07-09T14:33:39;35.60;53.70
23291;DHT22;11814;44.686;10.842;2023-07-09T14:36:04;35.60;53.70
23291;DHT22;11814;44.686;10.842;2023-07-09T14:38:30;35.60;53.40
23291;DHT22;11814;44.686;10.842;2023-07-09T14:40:57;35.60;53.00
23291;DHT22;11814;44.686;10.842;2023-07-09T14:43:24;35.70;53.00
23291;DHT22;11814;44.686;10.842;2023-07-09T14:45:50;35.70;52.70
23291;DHT22;11814;44.686;10.842;2023-07-09T14:48:17;35.70;52.90
23291;DHT22;11814;44.686;10.842;2023-07-09T14:50:44;35.60;53.10
23291;DHT22;11814;44.686;10.842;2023-07-09T14:53:21;35.70;53.00
23291;DHT22;11814;44.686;10.842;2023-07-09T14:55:49;35.60;52.60
23291;DHT22;11814;44.686;10.842;2023-07-09T14:58:17;35.60;52.60
23291;DHT22;11814;44.686;10.842;2023-07-09T15:00:43;35.60;52.60
23291;DHT22;11814;44.686;10.842;2023-07-09T15:03:20;35.70;52.90
23291;DHT22;11814;44.686;10.842;2023-07-09T15:05:46;35.70;53.50
23291;DHT22;11814;44.686;10.842;2023-07-09T15:08:14;35.60;53.60
23291;DHT22;11814;44.686;10.842;2023-07-09T15:10:40;35.60;53.60
23291;DHT22;11814;44.686;10.842;2023-07-09T15:13:15;35.60;53.90
23291;DHT22;11814;44.686;10.842;2023-07-09T15:15:41;35.70;54.20
23291;DHT22;11814;44.686;10.842;2023-07-09T15:18:12;35.60;54.30
23291;DHT22;11814;44.686;10.842;2023-07-09T15:20:38;35.60;54.50
23291;DHT22;11814;44.686;10.842;2023-07-09T15:23:05;35.70;54.50
23291;DHT22;11814;44.686;10.842;2023-07-09T15:25:30;35.60;53.80
23291;DHT22;11814;44.686;10.842;2023-07-09T15:27:57;35.60;53.50
23291;DHT22;11814;44.686;10.842;2023-07-09T15:30:24;35.60;53.10
23291;DHT22;11814;44.686;10.842;2023-07-09T15:32:50;35.60;53.20
23291;DHT22;11814;44.686;10.842;2023-07-09T15:35:18;35.60;53.70
23291;DHT22;11814;44.686;10.842;2023-07-09T15:37:46;35.60;53.90
23291;DHT22;11814;44.686;10.842;2023-07-09T15:40:25;35.60;53.90
23291;DHT22;11814;44.686;10.842;2023-07-09T15:42:56;35.70;53.80